createdAt,value
2023-02-01T00:01:20.979Z,3.97
2023-02-01T00:03:47.950Z,4.63
2023-02-01T00:06:14.628Z,4.38
2023-02-01T00:08:41.506Z,4.78
2023-02-01T00:11:10.960Z,4.18
2023-02-01T00:13:40.317Z,5.00
2023-02-01T00:16:08.214Z,4.07
2023-02-01T00:18:35.607Z,3.45
2023-02-01T00:23:29.096Z,4.43
2023-02-01T00:25:55.833Z,3.67
2023-02-01T00:28:22.496Z,4.32
2023-02-01T00:31:03.643Z,5.70
2023-02-01T00:33:31.821Z,5.43
2023-02-01T00:35:59.920Z,5.63
2023-02-01T00:38:28.082Z,5.30
2023-02-01T00:40:55.086Z,4.82
2023-02-01T00:43:21.824Z,4.10
2023-02-01T00:45:48.466Z,3.40
2023-02-01T00:48:15.165Z,3.72
2023-02-01T00:50:44.933Z,2.13
2023-02-01T00:53:12.097Z,2.88
2023-02-01T00:55:38.770Z,3.47
2023-02-01T00:58:07.051Z,3.80
2023-02-01T01:00:34.308Z,3.90
2023-02-01T01:03:01.141Z,4.43
2023-02-01T01:05:28.747Z,4.78
2023-02-01T01:07:55.671Z,5.10
2023-02-01T01:10:23.208Z,3.65
2023-02-01T01:12:50.155Z,5.50
2023-02-01T01:15:16.841Z,5.70
2023-02-01T01:17:43.520Z,6.00
2023-02-01T01:20:10.977Z,4.30
2023-02-01T01:22:37.679Z,5.53
2023-02-01T01:25:04.757Z,6.55
2023-02-01T01:27:31.397Z,6.22
2023-02-01T01:29:58.033Z,5.50
2023-02-01T01:32:24.755Z,3.63
2023-02-01T01:34:51.710Z,6.03
2023-02-01T01:37:18.412Z,5.85
2023-02-01T01:39:45.063Z,5.43
2023-02-01T01:42:13.937Z,3.70
2023-02-01T01:44:59.326Z,5.38
2023-02-01T01:47:40.431Z,5.78
2023-02-01T01:50:11.617Z,6.38
2023-02-01T01:52:40.012Z,6.05
2023-02-01T01:55:07.515Z,6.53
2023-02-01T01:57:38.306Z,5.25
2023-02-01T02:00:17.477Z,5.85
2023-02-01T02:02:47.969Z,5.82
2023-02-01T02:05:16.716Z,6.07
2023-02-01T02:07:47.795Z,6.75
2023-02-01T02:10:16.204Z,6.45
2023-02-01T02:12:46.842Z,7.10
2023-02-01T02:15:16.095Z,6.82
2023-02-01T02:17:50.971Z,6.50
2023-02-01T02:21:04.612Z,6.25
2023-02-01T02:24:01.073Z,6.82
2023-02-01T02:27:23.851Z,6.78
2023-02-01T02:30:12.826Z,4.28
2023-02-01T02:32:57.568Z,4.03
2023-02-01T02:35:42.480Z,2.72
2023-02-01T02:38:36.763Z,2.13
2023-02-01T02:41:47.430Z,4.18
2023-02-01T02:44:42.949Z,5.78
2023-02-01T02:47:27.339Z,5.85
2023-02-01T02:50:29.711Z,5.53
2023-02-01T02:53:25.242Z,5.80
2023-02-01T02:55:53.164Z,6.40
2023-02-01T02:58:40.966Z,5.90
2023-02-01T03:01:26.716Z,5.90
2023-02-01T03:04:09.480Z,6.45
2023-02-01T03:06:39.690Z,6.30
2023-02-01T03:09:21.743Z,6.63
2023-02-01T03:12:09.346Z,5.78
2023-02-01T03:14:39.235Z,6.30
2023-02-01T03:17:12.938Z,6.22
2023-02-01T03:19:49.341Z,5.72
2023-02-01T03:22:21.241Z,5.45
2023-02-01T03:24:51.216Z,5.35
2023-02-01T03:27:31.464Z,5.13
2023-02-01T03:30:06.694Z,6.72
2023-02-01T03:32:55.550Z,5.82
2023-02-01T03:35:45.446Z,5.65
2023-02-01T03:38:28.472Z,6.40
2023-02-01T03:41:16.595Z,6.20
2023-02-01T03:43:54.613Z,4.80
2023-02-01T03:49:08.962Z,5.18
2023-02-01T03:51:39.589Z,5.90
2023-02-01T03:54:09.009Z,6.35
2023-02-01T03:56:38.717Z,5.55
2023-02-01T03:59:05.628Z,5.55
2023-02-01T04:01:35.383Z,5.82
2023-02-01T04:04:02.106Z,5.68
2023-02-01T04:06:29.251Z,6.32
2023-02-01T04:09:00.463Z,6.18
2023-02-01T04:11:28.421Z,5.32
2023-02-01T04:13:55.120Z,6.07
2023-02-01T04:16:21.829Z,6.07
2023-02-01T04:18:48.507Z,4.72
2023-02-01T04:21:15.179Z,5.10
2023-02-01T04:23:41.833Z,6.35
2023-02-01T04:26:08.541Z,4.38
2023-02-01T04:28:35.243Z,3.92
2023-02-01T04:31:02.008Z,5.18
2023-02-01T04:33:28.760Z,6.03
2023-02-01T04:35:55.492Z,5.30
2023-02-01T04:38:22.200Z,5.20
2023-02-01T04:40:49.392Z,4.90
2023-02-01T04:43:17.595Z,5.05
2023-02-01T04:45:49.646Z,5.15
2023-02-01T04:48:17.359Z,4.72
2023-02-01T04:50:48.255Z,5.03
2023-02-01T04:53:18.448Z,5.15
2023-02-01T04:55:45.602Z,5.88
2023-02-01T04:58:12.446Z,6.18
2023-02-01T05:00:39.195Z,6.70
2023-02-01T05:03:06.125Z,4.00
2023-02-01T05:05:33.054Z,5.53
2023-02-01T05:07:59.926Z,5.35
2023-02-01T05:10:26.658Z,5.65
2023-02-01T05:13:12.064Z,6.28
2023-02-01T05:15:38.802Z,6.35
2023-02-01T05:18:05.577Z,5.93
2023-02-01T05:20:32.241Z,5.80
2023-02-01T05:22:58.925Z,5.88
2023-02-01T05:25:25.770Z,8.23
2023-02-01T05:27:53.804Z,5.43
2023-02-01T05:30:20.824Z,5.85
2023-02-01T05:32:51.364Z,4.40
2023-02-01T05:35:18.013Z,4.90
2023-02-01T05:37:44.698Z,7.93
2023-02-01T05:40:11.871Z,7.60
2023-02-01T05:42:38.566Z,7.47
2023-02-01T05:45:06.376Z,5.28
2023-02-01T05:47:33.136Z,1.77
2023-02-01T05:49:59.770Z,1.70
2023-02-01T05:52:26.432Z,2.20
2023-02-01T05:54:53.687Z,2.25
2023-02-01T05:57:20.441Z,4.10
2023-02-01T05:59:48.387Z,3.95
2023-02-01T06:02:15.740Z,3.65
2023-02-01T06:07:11.199Z,3.85
2023-02-01T06:09:38.247Z,6.90
2023-02-01T06:12:05.372Z,7.13
2023-02-01T06:14:32.043Z,6.95
2023-02-01T06:16:58.862Z,6.53
2023-02-01T06:19:25.615Z,7.03
2023-02-01T06:21:52.561Z,5.80
2023-02-01T06:24:19.328Z,6.00
2023-02-01T06:26:46.110Z,5.95
2023-02-01T06:29:13.129Z,5.45
2023-02-01T06:31:40.741Z,4.50
2023-02-01T06:34:07.585Z,4.68
2023-02-01T06:36:34.378Z,3.47
2023-02-01T06:39:01.029Z,5.78
2023-02-01T06:41:29.534Z,4.43
2023-02-01T06:43:56.574Z,6.95
2023-02-01T06:46:23.460Z,6.93
2023-02-01T06:48:51.936Z,6.82
2023-02-01T06:51:27.219Z,7.28
2023-02-01T06:53:53.896Z,7.80
2023-02-01T06:56:21.578Z,9.00
2023-02-01T06:58:48.540Z,8.90
2023-02-01T07:01:16.251Z,8.85
2023-02-01T07:03:43.722Z,7.63
2023-02-01T07:06:11.011Z,6.75
2023-02-01T07:08:38.711Z,7.30
2023-02-01T07:11:11.525Z,7.68
2023-02-01T07:13:39.573Z,9.23
2023-02-01T07:16:10.996Z,8.93
2023-02-01T07:18:37.784Z,8.45
2023-02-01T07:21:04.576Z,5.45
2023-02-01T07:23:31.719Z,8.20
2023-02-01T07:26:01.092Z,9.25
2023-02-01T07:28:30.127Z,8.73
2023-02-01T07:31:07.110Z,8.43
2023-02-01T07:33:34.695Z,9.98
2023-02-01T07:36:03.649Z,17.90
2023-02-01T07:38:30.695Z,15.27
2023-02-01T07:41:01.921Z,17.30
2023-02-01T07:43:29.390Z,19.73
2023-02-01T07:45:57.264Z,22.25
2023-02-01T07:48:26.055Z,19.13
2023-02-01T07:51:19.216Z,19.30
2023-02-01T07:53:46.188Z,10.27
2023-02-01T07:56:18.348Z,13.40
2023-02-01T07:58:49.492Z,13.15
2023-02-01T08:01:25.562Z,12.68
2023-02-01T08:03:57.816Z,11.43
2023-02-01T08:06:26.031Z,9.25
2023-02-01T08:08:54.019Z,7.80
2023-02-01T08:11:22.414Z,6.70
2023-02-01T08:13:49.630Z,6.88
2023-02-01T08:16:18.351Z,8.07
2023-02-01T08:18:45.614Z,7.03
2023-02-01T08:21:22.896Z,7.90
2023-02-01T08:23:49.984Z,6.10
2023-02-01T08:26:25.690Z,7.38
2023-02-01T08:29:04.074Z,6.68
2023-02-01T08:31:31.425Z,6.60
2023-02-01T08:34:01.446Z,8.23
2023-02-01T08:36:29.818Z,6.68
2023-02-01T08:38:57.009Z,6.15
2023-02-01T08:41:26.167Z,5.80
2023-02-01T08:43:55.019Z,7.38
2023-02-01T08:46:21.843Z,5.57
2023-02-01T08:48:49.254Z,3.85
2023-02-01T08:53:44.610Z,5.45
2023-02-01T08:56:13.708Z,5.32
2023-02-01T08:58:40.488Z,5.63
2023-02-01T09:01:13.486Z,4.60
2023-02-01T09:03:40.699Z,6.45
2023-02-01T09:06:10.390Z,6.32
2023-02-01T09:08:38.440Z,5.97
2023-02-01T09:11:12.184Z,6.20
2023-02-01T09:13:38.887Z,5.70
2023-02-01T09:16:06.142Z,6.38
2023-02-01T09:20:59.512Z,6.68
2023-02-01T09:23:26.316Z,6.50
2023-02-01T09:25:53.180Z,5.68
2023-02-01T09:28:20.188Z,6.70
2023-02-01T09:30:47.013Z,6.05
2023-02-01T09:33:13.784Z,6.80
2023-02-01T09:35:40.469Z,7.05
2023-02-01T09:38:07.318Z,5.90
2023-02-01T09:40:35.583Z,6.07
2023-02-01T09:43:12.482Z,6.82
2023-02-01T09:45:50.497Z,7.50
2023-02-01T09:50:58.365Z,8.30
2023-02-01T09:53:34.156Z,6.05
2023-02-01T09:56:13.167Z,6.38
2023-02-01T09:58:50.517Z,6.22
2023-02-01T10:01:26.302Z,23.98
2023-02-01T10:03:58.447Z,10.60
2023-02-01T10:06:43.865Z,7.30
2023-02-01T10:09:19.357Z,8.00
2023-02-01T10:11:56.533Z,7.30
2023-02-01T10:14:28.853Z,5.40
2023-02-01T10:17:01.696Z,7.45
2023-02-01T10:19:34.014Z,7.50
2023-02-01T10:22:31.515Z,7.30
2023-02-01T10:25:34.923Z,5.88
2023-02-01T10:28:02.881Z,6.38
2023-02-01T10:30:39.505Z,7.95
2023-02-01T10:33:22.616Z,8.27
2023-02-01T10:35:56.488Z,6.90
2023-02-01T10:38:29.809Z,7.22
2023-02-01T10:41:03.782Z,6.75
2023-02-01T10:43:31.646Z,10.82
2023-02-01T10:45:58.333Z,7.82
2023-02-01T10:48:25.354Z,5.75
2023-02-01T10:51:00.829Z,6.75
2023-02-01T10:53:38.145Z,6.45
2023-02-01T10:56:08.496Z,9.25
2023-02-01T10:58:43.562Z,6.60
2023-02-01T11:01:22.577Z,6.30
2023-02-01T11:04:03.411Z,5.80
2023-02-01T11:06:41.519Z,6.20
2023-02-01T11:09:08.147Z,6.28
2023-02-01T11:11:55.088Z,5.53
2023-02-01T11:14:33.029Z,5.43
2023-02-01T11:19:31.003Z,5.45
2023-02-01T11:22:00.431Z,6.32
2023-02-01T11:24:34.382Z,6.10
2023-02-01T11:27:06.804Z,5.95
2023-02-01T11:29:39.479Z,6.30
2023-02-01T11:32:06.302Z,5.93
2023-02-01T11:34:39.541Z,7.53
2023-02-01T11:37:19.617Z,8.20
2023-02-01T11:39:56.081Z,7.10
2023-02-01T11:42:22.854Z,7.03
2023-02-01T11:44:49.561Z,6.55
2023-02-01T11:47:29.305Z,6.00
2023-02-01T11:49:58.902Z,5.55
2023-02-01T11:52:28.620Z,5.63
2023-02-01T11:55:15.316Z,6.30
2023-02-01T11:58:07.138Z,5.78
2023-02-01T12:00:40.312Z,5.97
2023-02-01T12:03:34.460Z,5.57
2023-02-01T12:06:09.307Z,5.43
2023-02-01T12:08:35.979Z,5.30
2023-02-01T12:11:37.726Z,6.07
2023-02-01T12:14:23.875Z,9.20
2023-02-01T12:16:56.486Z,11.23
2023-02-01T12:19:49.520Z,12.05
2023-02-01T12:22:21.994Z,8.27
2023-02-01T12:25:14.188Z,8.00
2023-02-01T12:27:53.544Z,6.28
2023-02-01T12:30:57.770Z,6.18
2023-02-01T12:33:36.308Z,5.45
2023-02-01T12:36:44.632Z,4.25
2023-02-01T12:39:45.391Z,4.10
2023-02-01T12:42:22.150Z,3.13
2023-02-01T12:44:57.430Z,3.10
2023-02-01T12:47:40.305Z,2.83
2023-02-01T12:50:33.845Z,1.80
2023-02-01T12:53:21.006Z,1.75
2023-02-01T12:55:55.251Z,1.20
2023-02-01T12:58:28.227Z,0.70
2023-02-01T13:01:09.547Z,0.63
2023-02-01T13:03:55.032Z,0.70
2023-02-01T13:06:37.469Z,0.85
2023-02-01T13:09:24.877Z,0.75
2023-02-01T13:11:55.041Z,0.90
2023-02-01T13:14:38.884Z,0.60
2023-02-01T13:17:11.392Z,0.60
2023-02-01T13:19:52.935Z,0.80
2023-02-01T13:22:33.979Z,1.00
2023-02-01T13:25:13.172Z,0.70
2023-02-01T13:27:40.498Z,0.70
2023-02-01T13:33:54.932Z,0.70
2023-02-01T13:35:55.979Z,0.85
2023-02-01T13:38:51.569Z,0.57
2023-02-01T13:41:33.721Z,0.88
2023-02-01T13:44:16.335Z,0.80
2023-02-01T13:46:46.313Z,0.60
2023-02-01T13:49:23.138Z,0.82
2023-02-01T13:51:54.122Z,2.30
2023-02-01T13:54:28.723Z,0.90
2023-02-01T13:56:56.543Z,0.70
2023-02-01T13:59:40.568Z,0.90
2023-02-01T14:02:41.343Z,0.73
2023-02-01T14:05:32.619Z,0.63
2023-02-01T14:08:08.783Z,1.00
2023-02-01T14:10:52.265Z,0.60
2023-02-01T14:13:37.119Z,0.63
2023-02-01T14:16:03.955Z,0.68
2023-02-01T14:18:42.035Z,0.65
2023-02-01T14:23:53.899Z,0.75
2023-02-01T14:26:23.786Z,0.80
2023-02-01T14:29:12.757Z,0.70
2023-02-01T14:31:51.200Z,0.93
2023-02-01T14:34:23.018Z,0.90
2023-02-01T14:37:11.573Z,0.65
2023-02-01T14:42:45.323Z,0.95
2023-02-01T14:45:22.914Z,0.93
2023-02-01T14:48:08.053Z,1.10
2023-02-01T14:50:37.563Z,0.65
2023-02-01T14:53:13.441Z,0.75
2023-02-01T14:55:47.462Z,1.00
2023-02-01T14:58:44.812Z,0.98
2023-02-01T15:01:30.402Z,1.02
2023-02-01T15:04:17.819Z,1.10
2023-02-01T15:06:55.855Z,1.30
2023-02-01T15:09:25.311Z,0.75
2023-02-01T15:12:00.927Z,0.80
2023-02-01T15:14:30.359Z,0.80
2023-02-01T15:16:57.161Z,1.38
2023-02-01T15:19:27.247Z,4.22
2023-02-01T15:21:56.427Z,3.50
2023-02-01T15:24:31.750Z,1.80
2023-02-01T15:27:05.393Z,1.23
2023-02-01T15:29:34.173Z,1.10
2023-02-01T15:32:01.420Z,1.33
2023-02-01T15:37:20.970Z,1.63
2023-02-01T15:40:11.827Z,2.00
2023-02-01T15:42:54.973Z,1.20
2023-02-01T15:45:26.156Z,1.73
2023-02-01T15:47:55.680Z,1.48
2023-02-01T15:50:25.369Z,2.28
2023-02-01T15:52:56.465Z,1.90
2023-02-01T15:55:38.241Z,2.03
2023-02-01T15:58:10.582Z,2.08
2023-02-01T16:00:47.649Z,1.20
2023-02-01T16:03:36.451Z,1.60
2023-02-01T16:06:07.190Z,1.50
2023-02-01T16:08:35.562Z,1.40
2023-02-01T16:11:29.194Z,1.00
2023-02-01T16:13:55.952Z,0.90
2023-02-01T16:16:22.681Z,1.23
2023-02-01T16:18:49.391Z,3.88
2023-02-01T16:21:16.309Z,3.55
2023-02-01T16:23:42.998Z,3.17
2023-02-01T16:26:09.892Z,1.58
2023-02-01T16:28:36.708Z,1.60
2023-02-01T16:31:03.538Z,0.90
2023-02-01T16:33:30.361Z,1.00
2023-02-01T16:36:01.207Z,0.80
2023-02-01T16:38:28.017Z,1.58
2023-02-01T16:40:54.755Z,1.60
2023-02-01T16:43:23.650Z,2.00
2023-02-01T16:45:53.066Z,1.83
2023-02-01T16:48:27.590Z,2.10
2023-02-01T16:50:56.941Z,5.20
2023-02-01T16:53:25.953Z,22.95
2023-02-01T16:55:53.201Z,13.93
2023-02-01T16:58:21.649Z,12.13
2023-02-01T17:00:49.183Z,11.45
2023-02-01T17:03:17.472Z,10.68
2023-02-01T17:05:56.895Z,10.68
2023-02-01T17:08:31.626Z,5.80
2023-02-01T17:10:59.325Z,7.35
2023-02-01T17:13:26.038Z,2.00
2023-02-01T17:15:59.571Z,2.78
2023-02-01T17:18:31.568Z,2.00
2023-02-01T17:21:03.187Z,1.48
2023-02-01T17:23:31.089Z,1.60
2023-02-01T17:25:58.106Z,2.08
2023-02-01T17:28:25.522Z,2.60
2023-02-01T17:33:36.040Z,2.47
2023-02-01T17:36:04.909Z,3.33
2023-02-01T17:38:31.715Z,3.78
2023-02-01T17:40:58.466Z,3.83
2023-02-01T17:43:26.278Z,1.30
2023-02-01T17:45:58.626Z,1.10
2023-02-01T17:48:27.843Z,3.63
2023-02-01T17:50:58.713Z,1.88
2023-02-01T17:53:27.067Z,2.30
2023-02-01T17:55:54.457Z,2.78
2023-02-01T18:00:49.336Z,3.47
2023-02-01T18:03:23.771Z,2.17
2023-02-01T18:05:53.499Z,1.98
2023-02-01T18:08:26.135Z,1.88
2023-02-01T18:11:01.163Z,2.28
2023-02-01T18:13:28.772Z,1.38
2023-02-01T18:15:55.915Z,2.05
2023-02-01T18:18:22.699Z,2.63
2023-02-01T18:20:49.806Z,1.35
2023-02-01T18:23:24.130Z,2.58
2023-02-01T18:25:52.463Z,4.47
2023-02-01T18:28:20.500Z,4.53
2023-02-01T18:30:49.185Z,2.60
2023-02-01T18:33:18.189Z,2.20
2023-02-01T18:35:44.978Z,2.30
2023-02-01T18:38:11.736Z,2.50
2023-02-01T18:40:58.038Z,2.17
2023-02-01T18:43:25.229Z,1.88
2023-02-01T18:45:52.052Z,2.20
2023-02-01T18:48:43.951Z,4.38
2023-02-01T18:51:13.202Z,3.40
2023-02-01T18:53:40.469Z,2.63
2023-02-01T18:58:33.890Z,0.90
2023-02-01T19:01:11.698Z,3.38
2023-02-01T19:03:44.810Z,11.52
2023-02-01T19:06:18.031Z,32.75
2023-02-01T19:11:12.259Z,11.80
2023-02-01T19:13:39.709Z,11.40
2023-02-01T19:16:11.841Z,5.07
2023-02-01T19:18:38.790Z,5.80
2023-02-01T19:21:10.267Z,5.47
2023-02-01T19:23:39.321Z,3.22
2023-02-01T19:26:19.628Z,2.50
2023-02-01T19:28:47.817Z,2.42
2023-02-01T19:31:15.664Z,2.00
2023-02-01T19:33:42.582Z,1.85
2023-02-01T19:36:10.825Z,2.38
2023-02-01T19:38:38.007Z,3.53
2023-02-01T19:41:05.433Z,2.58
2023-02-01T19:45:59.348Z,1.58
2023-02-01T19:48:26.010Z,2.00
2023-02-01T19:50:52.742Z,1.27
2023-02-01T19:53:24.576Z,0.98
2023-02-01T19:55:51.291Z,1.95
2023-02-01T19:58:18.066Z,1.08
2023-02-01T20:00:43.896Z,1.85
2023-02-01T20:03:10.678Z,2.03
2023-02-01T20:05:37.544Z,2.80
2023-02-01T20:08:04.512Z,2.00
2023-02-01T20:10:31.266Z,2.17
2023-02-01T20:12:57.930Z,1.63
2023-02-01T20:15:26.926Z,2.03
2023-02-01T20:17:53.923Z,2.25
2023-02-01T20:20:20.606Z,2.28
2023-02-01T20:22:47.282Z,3.85
2023-02-01T20:25:13.952Z,1.40
2023-02-01T20:27:41.470Z,1.15
2023-02-01T20:34:39.138Z,3.30
2023-02-01T20:37:05.935Z,1.10
2023-02-01T20:39:32.908Z,1.50
2023-02-01T20:41:59.587Z,1.85
2023-02-01T20:44:26.278Z,2.97
2023-02-01T20:46:53.269Z,3.58
2023-02-01T20:49:20.141Z,6.85
2023-02-01T20:51:46.851Z,1.45
2023-02-01T20:54:13.535Z,1.20
2023-02-01T20:56:40.306Z,1.58
2023-02-01T20:59:10.687Z,4.93
2023-02-01T21:01:38.096Z,0.70
2023-02-01T21:06:31.416Z,1.15
2023-02-01T21:08:58.119Z,1.65
2023-02-01T21:11:24.788Z,1.35
2023-02-01T21:13:51.591Z,1.13
2023-02-01T21:16:20.844Z,0.75
2023-02-01T21:18:51.800Z,5.82
2023-02-01T21:21:18.607Z,5.07
2023-02-01T21:23:45.757Z,1.42
2023-02-01T21:26:17.961Z,1.65
2023-02-01T21:28:45.280Z,1.38
2023-02-01T21:33:40.717Z,2.03
2023-02-01T21:36:07.706Z,0.98
2023-02-01T21:38:34.748Z,1.30
2023-02-01T21:41:20.313Z,1.30
2023-02-01T21:43:47.040Z,1.08
2023-02-01T21:46:13.815Z,1.23
2023-02-01T21:49:04.098Z,1.67
2023-02-01T21:51:28.890Z,0.93
2023-02-01T21:56:23.232Z,1.08
2023-02-01T21:58:50.003Z,0.88
2023-02-01T22:01:16.731Z,1.27
2023-02-01T22:03:43.418Z,1.30
2023-02-01T22:06:10.113Z,1.30
2023-02-01T22:08:38.388Z,1.15
2023-02-01T22:11:05.736Z,1.02
2023-02-01T22:15:59.084Z,0.80
2023-02-01T22:18:25.765Z,0.80
2023-02-01T22:20:59.080Z,1.60
2023-02-01T22:23:28.039Z,1.77
2023-02-01T22:26:02.115Z,1.40
2023-02-01T22:28:32.644Z,1.23
2023-02-01T22:31:05.022Z,1.33
2023-02-01T22:33:33.467Z,1.48
2023-02-01T22:36:01.212Z,1.35
2023-02-01T22:38:31.224Z,1.48
2023-02-01T22:40:59.568Z,1.20
2023-02-01T22:43:26.895Z,1.17
2023-02-01T22:48:20.907Z,0.98
2023-02-01T22:50:47.663Z,0.93
2023-02-01T22:53:14.325Z,0.70
2023-02-01T22:55:42.302Z,0.55
2023-02-01T22:58:08.970Z,1.30
2023-02-01T23:00:35.665Z,0.73
2023-02-01T23:03:02.424Z,0.65
2023-02-01T23:05:29.356Z,1.40
2023-02-01T23:07:56.036Z,1.42
2023-02-01T23:10:23.132Z,1.27
2023-02-01T23:12:50.031Z,1.83
2023-02-01T23:15:17.403Z,1.48
2023-02-01T23:20:14.860Z,1.20
2023-02-01T23:22:46.017Z,0.98
2023-02-01T23:25:15.166Z,0.75
2023-02-01T23:27:42.128Z,1.15
2023-02-01T23:30:09.996Z,0.90
2023-02-01T23:32:37.041Z,1.42
2023-02-01T23:35:05.446Z,1.85
2023-02-01T23:37:32.243Z,1.80
2023-02-01T23:39:58.907Z,1.60
2023-02-01T23:42:25.567Z,1.50
2023-02-01T23:44:52.227Z,1.27
2023-02-01T23:47:18.890Z,2.00
2023-02-01T23:49:45.620Z,1.40
2023-02-01T23:52:12.560Z,1.45
2023-02-01T23:54:39.384Z,2.45
2023-02-01T23:57:06.148Z,1.70
2023-02-01T23:59:32.911Z,1.40
